Greenacres, Florida
Current Conditions -  °F | °C
As of 6:53 AM on Monday 22 Dec 2014 (Local Time) from KPBI Reporting Station
Broken Clouds Broken Clouds  
Wind Chill: 68°   Ceiling: 22000
Heat Index: 68°   Visibility: 10mi
Dew Point: 64°   Wind: 3mph
Humidity: 87%   Direction: 160°SSE
Pressure: 30.01"   Gusts: NA
Location:  26.6599°N, 80.1276°W
Report Text: KPBI 221153Z 16003KT 10SM FEW110 BKN220 20/18 A3001 RMK AO2 SLP162 T02000178 10228 20183 55000
Loading
Personal Weather Stations






























Interactive Weather Map New forecast layout! Learn more

10-Day Weather Forecast

Advertisements
Track Severe Weather on mobile